sensor_id;sensor_type;location;lat;lon;timestamp;P1;durP1;ratioP1;P2;durP2;ratioP2
65387;SDS011;51992;53.528;49.474;2024-01-30T00:02:10;3.40;;;3.10;;
65387;SDS011;51992;53.528;49.474;2024-01-30T00:04:35;4.35;;;3.63;;
65387;SDS011;51992;53.528;49.474;2024-01-30T00:07:01;4.63;;;4.10;;
65387;SDS011;51992;53.528;49.474;2024-01-30T00:09:27;4.82;;;4.32;;
65387;SDS011;51992;53.528;49.474;2024-01-30T00:11:53;4.60;;;3.80;;
65387;SDS011;51992;53.528;49.474;2024-01-30T00:14:18;4.30;;;3.90;;
65387;SDS011;51992;53.528;49.474;2024-01-30T00:16:44;4.38;;;3.60;;
65387;SDS011;51992;53.528;49.474;2024-01-30T00:19:10;4.28;;;3.88;;
65387;SDS011;51992;53.528;49.474;2024-01-30T00:21:36;4.97;;;4.03;;
65387;SDS011;51992;53.528;49.474;2024-01-30T00:24:02;5.40;;;4.55;;
65387;SDS011;51992;53.528;49.474;2024-01-30T00:26:28;5.13;;;4.63;;
65387;SDS011;51992;53.528;49.474;2024-01-30T00:28:54;4.32;;;3.92;;
65387;SDS011;51992;53.528;49.474;2024-01-30T00:31:19;5.03;;;3.90;;
65387;SDS011;51992;53.528;49.474;2024-01-30T00:33:45;5.05;;;3.85;;
65387;SDS011;51992;53.528;49.474;2024-01-30T00:36:11;4.15;;;3.67;;
65387;SDS011;51992;53.528;49.474;2024-01-30T00:38:37;6.05;;;4.50;;
65387;SDS011;51992;53.528;49.474;2024-01-30T00:41:03;5.43;;;4.00;;
65387;SDS011;51992;53.528;49.474;2024-01-30T00:43:28;6.47;;;4.32;;
65387;SDS011;51992;53.528;49.474;2024-01-30T00:45:55;6.15;;;4.70;;
65387;SDS011;51992;53.528;49.474;2024-01-30T00:48:21;5.63;;;4.40;;
65387;SDS011;51992;53.528;49.474;2024-01-30T00:50:46;8.63;;;7.30;;
65387;SDS011;51992;53.528;49.474;2024-01-30T00:53:12;9.20;;;6.70;;
65387;SDS011;51992;53.528;49.474;2024-01-30T00:55:38;10.95;;;7.75;;
65387;SDS011;51992;53.528;49.474;2024-01-30T00:58:04;7.90;;;5.95;;
65387;SDS011;51992;53.528;49.474;2024-01-30T01:00:30;8.18;;;6.60;;
65387;SDS011;51992;53.528;49.474;2024-01-30T01:02:57;7.75;;;5.65;;
65387;SDS011;51992;53.528;49.474;2024-01-30T01:05:23;5.53;;;4.70;;
65387;SDS011;51992;53.528;49.474;2024-01-30T01:07:49;5.70;;;4.70;;
65387;SDS011;51992;53.528;49.474;2024-01-30T01:10:15;5.80;;;4.30;;
65387;SDS011;51992;53.528;49.474;2024-01-30T01:12:41;5.82;;;4.40;;
65387;SDS011;51992;53.528;49.474;2024-01-30T01:15:07;5.30;;;4.65;;
65387;SDS011;51992;53.528;49.474;2024-01-30T01:17:38;5.53;;;4.47;;
65387;SDS011;51992;53.528;49.474;2024-01-30T01:20:05;5.65;;;4.63;;
65387;SDS011;51992;53.528;49.474;2024-01-30T01:22:31;5.30;;;4.70;;
65387;SDS011;51992;53.528;49.474;2024-01-30T01:24:58;6.10;;;4.45;;
65387;SDS011;51992;53.528;49.474;2024-01-30T01:27:24;5.18;;;4.47;;
65387;SDS011;51992;53.528;49.474;2024-01-30T01:29:50;6.13;;;4.70;;
65387;SDS011;51992;53.528;49.474;2024-01-30T01:32:16;6.38;;;4.68;;
65387;SDS011;51992;53.528;49.474;2024-01-30T01:34:42;5.93;;;4.70;;
65387;SDS011;51992;53.528;49.474;2024-01-30T01:37:07;5.85;;;4.85;;
65387;SDS011;51992;53.528;49.474;2024-01-30T01:39:33;5.30;;;4.30;;
65387;SDS011;51992;53.528;49.474;2024-01-30T01:41:59;5.95;;;5.18;;
65387;SDS011;51992;53.528;49.474;2024-01-30T01:44:25;5.50;;;4.85;;
65387;SDS011;51992;53.528;49.474;2024-01-30T01:46:51;4.75;;;4.25;;
65387;SDS011;51992;53.528;49.474;2024-01-30T01:49:16;5.00;;;4.50;;
65387;SDS011;51992;53.528;49.474;2024-01-30T01:51:42;5.47;;;4.32;;
65387;SDS011;51992;53.528;49.474;2024-01-30T01:54:09;6.18;;;5.57;;
65387;SDS011;51992;53.528;49.474;2024-01-30T01:56:35;5.25;;;4.70;;
65387;SDS011;51992;53.528;49.474;2024-01-30T01:59:04;5.25;;;4.15;;
65387;SDS011;51992;53.528;49.474;2024-01-30T02:01:31;5.63;;;4.10;;
65387;SDS011;51992;53.528;49.474;2024-01-30T02:03:58;4.20;;;3.80;;
65387;SDS011;51992;53.528;49.474;2024-01-30T02:06:24;5.47;;;4.97;;
65387;SDS011;51992;53.528;49.474;2024-01-30T02:08:49;4.72;;;4.03;;
65387;SDS011;51992;53.528;49.474;2024-01-30T02:11:15;3.85;;;3.55;;
65387;SDS011;51992;53.528;49.474;2024-01-30T02:13:42;5.10;;;4.13;;
65387;SDS011;51992;53.528;49.474;2024-01-30T02:16:08;5.22;;;4.15;;
65387;SDS011;51992;53.528;49.474;2024-01-30T02:18:33;4.20;;;3.80;;
65387;SDS011;51992;53.528;49.474;2024-01-30T02:20:59;5.30;;;3.95;;
65387;SDS011;51992;53.528;49.474;2024-01-30T02:23:29;5.90;;;4.70;;
65387;SDS011;51992;53.528;49.474;2024-01-30T02:25:55;6.25;;;5.65;;
65387;SDS011;51992;53.528;49.474;2024-01-30T02:28:21;5.68;;;4.18;;
65387;SDS011;51992;53.528;49.474;2024-01-30T02:30:47;4.93;;;4.32;;
65387;SDS011;51992;53.528;49.474;2024-01-30T02:33:13;6.28;;;5.25;;
65387;SDS011;51992;53.528;49.474;2024-01-30T02:35:39;4.38;;;3.97;;
65387;SDS011;51992;53.528;49.474;2024-01-30T02:38:05;5.47;;;4.45;;
65387;SDS011;51992;53.528;49.474;2024-01-30T02:40:31;5.63;;;4.68;;
65387;SDS011;51992;53.528;49.474;2024-01-30T02:42:58;6.07;;;5.10;;
65387;SDS011;51992;53.528;49.474;2024-01-30T02:45:24;5.00;;;4.38;;
65387;SDS011;51992;53.528;49.474;2024-01-30T02:47:50;5.10;;;4.35;;
65387;SDS011;51992;53.528;49.474;2024-01-30T02:50:15;5.00;;;4.50;;
65387;SDS011;51992;53.528;49.474;2024-01-30T02:52:41;5.25;;;4.65;;
65387;SDS011;51992;53.528;49.474;2024-01-30T02:55:09;4.47;;;4.07;;
65387;SDS011;51992;53.528;49.474;2024-01-30T02:57:35;5.05;;;4.18;;
65387;SDS011;51992;53.528;49.474;2024-01-30T03:00:01;5.22;;;4.40;;
65387;SDS011;51992;53.528;49.474;2024-01-30T03:02:27;6.40;;;4.65;;
65387;SDS011;51992;53.528;49.474;2024-01-30T03:04:52;5.13;;;4.63;;
65387;SDS011;51992;53.528;49.474;2024-01-30T03:07:19;4.72;;;4.22;;
65387;SDS011;51992;53.528;49.474;2024-01-30T03:09:44;6.63;;;4.70;;
65387;SDS011;51992;53.528;49.474;2024-01-30T03:12:10;4.80;;;4.25;;
65387;SDS011;51992;53.528;49.474;2024-01-30T03:14:36;5.05;;;4.28;;
65387;SDS011;51992;53.528;49.474;2024-01-30T03:17:02;6.07;;;4.47;;
65387;SDS011;51992;53.528;49.474;2024-01-30T03:19:28;4.90;;;4.25;;
65387;SDS011;51992;53.528;49.474;2024-01-30T03:21:54;5.18;;;4.45;;
65387;SDS011;51992;53.528;49.474;2024-01-30T03:24:19;4.90;;;4.40;;
65387;SDS011;51992;53.528;49.474;2024-01-30T03:26:46;4.68;;;4.05;;
65387;SDS011;51992;53.528;49.474;2024-01-30T03:29:12;4.95;;;4.35;;
65387;SDS011;51992;53.528;49.474;2024-01-30T03:31:38;5.40;;;4.75;;
65387;SDS011;51992;53.528;49.474;2024-01-30T03:34:08;6.15;;;4.90;;
65387;SDS011;51992;53.528;49.474;2024-01-30T03:36:34;5.72;;;4.80;;
65387;SDS011;51992;53.528;49.474;2024-01-30T03:39:01;4.85;;;4.30;;
65387;SDS011;51992;53.528;49.474;2024-01-30T03:41:26;5.03;;;4.22;;
65387;SDS011;51992;53.528;49.474;2024-01-30T03:43:52;10.35;;;5.22;;
65387;SDS011;51992;53.528;49.474;2024-01-30T03:46:18;6.38;;;4.90;;
65387;SDS011;51992;53.528;49.474;2024-01-30T03:48:44;7.13;;;5.50;;
65387;SDS011;51992;53.528;49.474;2024-01-30T03:51:10;7.18;;;4.55;;
65387;SDS011;51992;53.528;49.474;2024-01-30T03:53:40;5.63;;;4.72;;
65387;SDS011;51992;53.528;49.474;2024-01-30T03:56:06;8.23;;;5.35;;
65387;SDS011;51992;53.528;49.474;2024-01-30T03:58:32;7.07;;;5.15;;
65387;SDS011;51992;53.528;49.474;2024-01-30T04:00:58;6.28;;;5.68;;
65387;SDS011;51992;53.528;49.474;2024-01-30T04:03:24;6.75;;;5.03;;
65387;SDS011;51992;53.528;49.474;2024-01-30T04:05:51;6.22;;;4.97;;
65387;SDS011;51992;53.528;49.474;2024-01-30T04:08:17;6.13;;;5.28;;
65387;SDS011;51992;53.528;49.474;2024-01-30T04:10:43;5.82;;;5.07;;
65387;SDS011;51992;53.528;49.474;2024-01-30T04:13:09;6.50;;;5.35;;
65387;SDS011;51992;53.528;49.474;2024-01-30T04:15:34;6.50;;;5.50;;
65387;SDS011;51992;53.528;49.474;2024-01-30T04:18:00;6.18;;;5.57;;
65387;SDS011;51992;53.528;49.474;2024-01-30T04:20:26;7.40;;;6.05;;
65387;SDS011;51992;53.528;49.474;2024-01-30T04:22:53;5.75;;;5.18;;
65387;SDS011;51992;53.528;49.474;2024-01-30T04:25:27;8.30;;;5.23;;
65387;SDS011;51992;53.528;49.474;2024-01-30T04:27:53;7.75;;;5.22;;
65387;SDS011;51992;53.528;49.474;2024-01-30T04:30:20;6.55;;;5.07;;
65387;SDS011;51992;53.528;49.474;2024-01-30T04:32:48;7.07;;;5.55;;
65387;SDS011;51992;53.528;49.474;2024-01-30T04:35:16;7.00;;;5.60;;
65387;SDS011;51992;53.528;49.474;2024-01-30T04:37:47;5.93;;;5.30;;
65387;SDS011;51992;53.528;49.474;2024-01-30T04:40:14;6.63;;;5.65;;
65387;SDS011;51992;53.528;49.474;2024-01-30T04:42:42;8.25;;;5.90;;
65387;SDS011;51992;53.528;49.474;2024-01-30T04:45:09;7.03;;;5.82;;
65387;SDS011;51992;53.528;49.474;2024-01-30T04:47:35;13.60;;;6.38;;
65387;SDS011;51992;53.528;49.474;2024-01-30T04:50:01;10.90;;;5.68;;
65387;SDS011;51992;53.528;49.474;2024-01-30T04:52:28;20.50;;;7.63;;
65387;SDS011;51992;53.528;49.474;2024-01-30T04:54:53;8.27;;;6.47;;
65387;SDS011;51992;53.528;49.474;2024-01-30T04:57:19;26.23;;;8.20;;
65387;SDS011;51992;53.528;49.474;2024-01-30T04:59:45;19.77;;;7.35;;
65387;SDS011;51992;53.528;49.474;2024-01-30T05:02:11;22.13;;;7.10;;
65387;SDS011;51992;53.528;49.474;2024-01-30T05:04:37;10.18;;;6.05;;
65387;SDS011;51992;53.528;49.474;2024-01-30T05:07:03;8.93;;;5.78;;
65387;SDS011;51992;53.528;49.474;2024-01-30T05:09:28;8.55;;;5.25;;
65387;SDS011;51992;53.528;49.474;2024-01-30T05:11:54;7.68;;;5.72;;
65387;SDS011;51992;53.528;49.474;2024-01-30T05:14:20;6.63;;;4.97;;
65387;SDS011;51992;53.528;49.474;2024-01-30T05:16:46;8.57;;;6.07;;
65387;SDS011;51992;53.528;49.474;2024-01-30T05:19:13;9.25;;;5.70;;
65387;SDS011;51992;53.528;49.474;2024-01-30T05:21:39;19.05;;;9.88;;
65387;SDS011;51992;53.528;49.474;2024-01-30T05:24:05;20.25;;;8.25;;
65387;SDS011;51992;53.528;49.474;2024-01-30T05:26:31;23.60;;;9.45;;
65387;SDS011;51992;53.528;49.474;2024-01-30T05:28:57;25.40;;;12.73;;
65387;SDS011;51992;53.528;49.474;2024-01-30T05:31:23;20.40;;;12.43;;
65387;SDS011;51992;53.528;49.474;2024-01-30T05:33:51;13.55;;;9.68;;
65387;SDS011;51992;53.528;49.474;2024-01-30T05:36:17;9.18;;;7.28;;
65387;SDS011;51992;53.528;49.474;2024-01-30T05:38:42;8.52;;;6.10;;
65387;SDS011;51992;53.528;49.474;2024-01-30T05:41:09;7.97;;;6.20;;
65387;SDS011;51992;53.528;49.474;2024-01-30T05:43:35;9.52;;;6.25;;
65387;SDS011;51992;53.528;49.474;2024-01-30T05:46:01;8.05;;;6.00;;
65387;SDS011;51992;53.528;49.474;2024-01-30T05:48:26;10.63;;;7.50;;
65387;SDS011;51992;53.528;49.474;2024-01-30T05:50:52;11.00;;;7.28;;
65387;SDS011;51992;53.528;49.474;2024-01-30T05:53:18;8.85;;;5.57;;
65387;SDS011;51992;53.528;49.474;2024-01-30T05:55:44;9.77;;;6.68;;
65387;SDS011;51992;53.528;49.474;2024-01-30T05:58:10;10.48;;;6.85;;
65387;SDS011;51992;53.528;49.474;2024-01-30T06:00:36;8.52;;;6.50;;
65387;SDS011;51992;53.528;49.474;2024-01-30T06:03:02;9.82;;;7.00;;
65387;SDS011;51992;53.528;49.474;2024-01-30T06:05:28;10.82;;;6.70;;
65387;SDS011;51992;53.528;49.474;2024-01-30T06:07:54;20.63;;;13.23;;
65387;SDS011;51992;53.528;49.474;2024-01-30T06:10:20;27.60;;;16.25;;
65387;SDS011;51992;53.528;49.474;2024-01-30T06:12:47;21.33;;;14.40;;
65387;SDS011;51992;53.528;49.474;2024-01-30T06:15:13;25.98;;;14.88;;
65387;SDS011;51992;53.528;49.474;2024-01-30T06:17:39;37.15;;;20.35;;
65387;SDS011;51992;53.528;49.474;2024-01-30T06:20:05;42.95;;;25.63;;
65387;SDS011;51992;53.528;49.474;2024-01-30T06:22:31;40.08;;;23.35;;
65387;SDS011;51992;53.528;49.474;2024-01-30T06:24:57;55.92;;;30.95;;
65387;SDS011;51992;53.528;49.474;2024-01-30T06:27:23;32.88;;;16.63;;
65387;SDS011;51992;53.528;49.474;2024-01-30T06:29:49;39.08;;;20.48;;
65387;SDS011;51992;53.528;49.474;2024-01-30T06:32:14;29.92;;;16.90;;
65387;SDS011;51992;53.528;49.474;2024-01-30T06:34:41;15.68;;;10.48;;
65387;SDS011;51992;53.528;49.474;2024-01-30T06:37:07;20.85;;;12.70;;
65387;SDS011;51992;53.528;49.474;2024-01-30T06:39:32;28.63;;;16.38;;
65387;SDS011;51992;53.528;49.474;2024-01-30T06:41:58;22.20;;;14.20;;
65387;SDS011;51992;53.528;49.474;2024-01-30T06:44:24;22.38;;;13.35;;
65387;SDS011;51992;53.528;49.474;2024-01-30T06:46:50;17.00;;;11.48;;
65387;SDS011;51992;53.528;49.474;2024-01-30T06:49:16;16.38;;;9.23;;
65387;SDS011;51992;53.528;49.474;2024-01-30T06:51:42;16.75;;;11.20;;
65387;SDS011;51992;53.528;49.474;2024-01-30T06:54:08;12.40;;;8.48;;
65387;SDS011;51992;53.528;49.474;2024-01-30T06:56:34;10.25;;;8.82;;
65387;SDS011;51992;53.528;49.474;2024-01-30T06:58:59;9.63;;;8.05;;
65387;SDS011;51992;53.528;49.474;2024-01-30T07:01:29;10.15;;;8.63;;
65387;SDS011;51992;53.528;49.474;2024-01-30T07:03:55;10.63;;;7.95;;
65387;SDS011;51992;53.528;49.474;2024-01-30T07:06:21;9.15;;;8.07;;
65387;SDS011;51992;53.528;49.474;2024-01-30T07:08:48;10.40;;;8.88;;
65387;SDS011;51992;53.528;49.474;2024-01-30T07:11:21;12.13;;;8.77;;
65387;SDS011;51992;53.528;49.474;2024-01-30T07:13:50;9.73;;;7.90;;
65387;SDS011;51992;53.528;49.474;2024-01-30T07:16:16;9.48;;;6.90;;
65387;SDS011;51992;53.528;49.474;2024-01-30T07:18:42;10.43;;;7.93;;
65387;SDS011;51992;53.528;49.474;2024-01-30T07:21:08;9.80;;;6.72;;
65387;SDS011;51992;53.528;49.474;2024-01-30T07:23:34;9.10;;;7.38;;
65387;SDS011;51992;53.528;49.474;2024-01-30T07:26:03;8.48;;;6.53;;
65387;SDS011;51992;53.528;49.474;2024-01-30T07:28:29;9.38;;;7.55;;
65387;SDS011;51992;53.528;49.474;2024-01-30T07:30:55;9.55;;;6.65;;
65387;SDS011;51992;53.528;49.474;2024-01-30T07:33:21;9.35;;;7.05;;
65387;SDS011;51992;53.528;49.474;2024-01-30T07:35:47;9.02;;;7.57;;
65387;SDS011;51992;53.528;49.474;2024-01-30T07:38:13;10.73;;;7.38;;
65387;SDS011;51992;53.528;49.474;2024-01-30T07:40:39;9.52;;;8.27;;
65387;SDS011;51992;53.528;49.474;2024-01-30T07:43:04;11.02;;;8.27;;
65387;SDS011;51992;53.528;49.474;2024-01-30T07:45:30;8.55;;;7.63;;
65387;SDS011;51992;53.528;49.474;2024-01-30T07:47:59;8.68;;;7.38;;
65387;SDS011;51992;53.528;49.474;2024-01-30T07:50:25;11.98;;;7.55;;
65387;SDS011;51992;53.528;49.474;2024-01-30T07:52:51;8.70;;;6.30;;
65387;SDS011;51992;53.528;49.474;2024-01-30T07:55:23;10.02;;;8.18;;
65387;SDS011;51992;53.528;49.474;2024-01-30T07:57:57;8.57;;;7.30;;
65387;SDS011;51992;53.528;49.474;2024-01-30T08:00:24;9.82;;;8.65;;
65387;SDS011;51992;53.528;49.474;2024-01-30T08:02:50;11.88;;;9.27;;
65387;SDS011;51992;53.528;49.474;2024-01-30T08:05:16;17.60;;;12.95;;
65387;SDS011;51992;53.528;49.474;2024-01-30T08:07:42;11.18;;;9.55;;
65387;SDS011;51992;53.528;49.474;2024-01-30T08:10:12;14.50;;;10.70;;
65387;SDS011;51992;53.528;49.474;2024-01-30T08:12:39;11.05;;;8.30;;
65387;SDS011;51992;53.528;49.474;2024-01-30T08:15:05;9.32;;;8.20;;
65387;SDS011;51992;53.528;49.474;2024-01-30T08:17:31;11.07;;;8.45;;
65387;SDS011;51992;53.528;49.474;2024-01-30T08:19:57;10.88;;;8.35;;
65387;SDS011;51992;53.528;49.474;2024-01-30T08:22:23;10.45;;;8.50;;
65387;SDS011;51992;53.528;49.474;2024-01-30T08:24:53;12.68;;;8.15;;
65387;SDS011;51992;53.528;49.474;2024-01-30T08:27:19;9.52;;;8.13;;
65387;SDS011;51992;53.528;49.474;2024-01-30T08:29:45;12.43;;;7.18;;
65387;SDS011;51992;53.528;49.474;2024-01-30T08:32:11;11.85;;;8.80;;
65387;SDS011;51992;53.528;49.474;2024-01-30T08:34:36;10.98;;;8.43;;
65387;SDS011;51992;53.528;49.474;2024-01-30T08:37:02;15.68;;;11.63;;
65387;SDS011;51992;53.528;49.474;2024-01-30T08:39:28;23.08;;;14.80;;
65387;SDS011;51992;53.528;49.474;2024-01-30T08:41:54;8.88;;;7.10;;
65387;SDS011;51992;53.528;49.474;2024-01-30T08:44:20;9.80;;;8.05;;
65387;SDS011;51992;53.528;49.474;2024-01-30T08:46:51;16.40;;;10.98;;
65387;SDS011;51992;53.528;49.474;2024-01-30T08:49:16;18.05;;;12.20;;
65387;SDS011;51992;53.528;49.474;2024-01-30T08:51:42;10.88;;;8.15;;
65387;SDS011;51992;53.528;49.474;2024-01-30T08:54:08;9.13;;;7.45;;
65387;SDS011;51992;53.528;49.474;2024-01-30T08:56:33;16.73;;;11.70;;
65387;SDS011;51992;53.528;49.474;2024-01-30T08:58:59;35.00;;;21.80;;
65387;SDS011;51992;53.528;49.474;2024-01-30T09:01:25;13.00;;;9.20;;
65387;SDS011;51992;53.528;49.474;2024-01-30T09:03:51;10.57;;;8.48;;
65387;SDS011;51992;53.528;49.474;2024-01-30T09:06:17;8.65;;;7.45;;
65387;SDS011;51992;53.528;49.474;2024-01-30T09:08:43;15.45;;;11.80;;
65387;SDS011;51992;53.528;49.474;2024-01-30T09:11:09;13.18;;;9.68;;
65387;SDS011;51992;53.528;49.474;2024-01-30T09:13:35;16.85;;;12.25;;
65387;SDS011;51992;53.528;49.474;2024-01-30T09:16:01;12.68;;;9.50;;
65387;SDS011;51992;53.528;49.474;2024-01-30T09:18:26;12.13;;;8.63;;
65387;SDS011;51992;53.528;49.474;2024-01-30T09:20:52;13.23;;;8.60;;
65387;SDS011;51992;53.528;49.474;2024-01-30T09:23:18;13.98;;;10.63;;
65387;SDS011;51992;53.528;49.474;2024-01-30T09:25:45;13.90;;;10.73;;
65387;SDS011;51992;53.528;49.474;2024-01-30T09:28:10;14.60;;;10.55;;
65387;SDS011;51992;53.528;49.474;2024-01-30T09:30:36;14.25;;;10.20;;
65387;SDS011;51992;53.528;49.474;2024-01-30T09:33:02;13.43;;;9.90;;
65387;SDS011;51992;53.528;49.474;2024-01-30T09:35:28;13.02;;;9.65;;
65387;SDS011;51992;53.528;49.474;2024-01-30T09:37:54;16.35;;;9.55;;
65387;SDS011;51992;53.528;49.474;2024-01-30T09:40:20;10.95;;;8.23;;
65387;SDS011;51992;53.528;49.474;2024-01-30T09:42:49;14.40;;;9.35;;
65387;SDS011;51992;53.528;49.474;2024-01-30T09:45:15;12.43;;;9.25;;
65387;SDS011;51992;53.528;49.474;2024-01-30T09:47:44;12.60;;;8.77;;
65387;SDS011;51992;53.528;49.474;2024-01-30T09:50:13;9.23;;;7.38;;
65387;SDS011;51992;53.528;49.474;2024-01-30T09:52:39;8.63;;;6.72;;
65387;SDS011;51992;53.528;49.474;2024-01-30T09:55:06;8.75;;;7.43;;
65387;SDS011;51992;53.528;49.474;2024-01-30T09:57:33;12.00;;;7.78;;
65387;SDS011;51992;53.528;49.474;2024-01-30T09:59:59;9.48;;;6.75;;
65387;SDS011;51992;53.528;49.474;2024-01-30T10:02:25;8.25;;;5.88;;
65387;SDS011;51992;53.528;49.474;2024-01-30T10:04:51;8.93;;;7.88;;
65387;SDS011;51992;53.528;49.474;2024-01-30T10:07:17;9.90;;;7.78;;
65387;SDS011;51992;53.528;49.474;2024-01-30T10:09:44;11.75;;;9.10;;
65387;SDS011;51992;53.528;49.474;2024-01-30T10:12:09;11.88;;;9.07;;
65387;SDS011;51992;53.528;49.474;2024-01-30T10:14:39;12.05;;;9.77;;
65387;SDS011;51992;53.528;49.474;2024-01-30T10:17:06;11.35;;;8.18;;
65387;SDS011;51992;53.528;49.474;2024-01-30T10:19:32;12.25;;;9.50;;
65387;SDS011;51992;53.528;49.474;2024-01-30T10:21:59;12.70;;;8.60;;
65387;SDS011;51992;53.528;49.474;2024-01-30T10:24:25;12.57;;;9.27;;
65387;SDS011;51992;53.528;49.474;2024-01-30T10:26:52;12.73;;;9.90;;
65387;SDS011;51992;53.528;49.474;2024-01-30T10:29:18;12.05;;;8.90;;
65387;SDS011;51992;53.528;49.474;2024-01-30T10:31:44;10.85;;;8.35;;
65387;SDS011;51992;53.528;49.474;2024-01-30T10:34:15;10.27;;;8.10;;
65387;SDS011;51992;53.528;49.474;2024-01-30T10:36:41;15.73;;;10.18;;
65387;SDS011;51992;53.528;49.474;2024-01-30T10:39:09;13.32;;;10.18;;
65387;SDS011;51992;53.528;49.474;2024-01-30T10:41:43;16.38;;;9.57;;
65387;SDS011;51992;53.528;49.474;2024-01-30T10:44:11;11.95;;;8.98;;
65387;SDS011;51992;53.528;49.474;2024-01-30T10:46:38;13.90;;;9.63;;
65387;SDS011;51992;53.528;49.474;2024-01-30T10:49:04;11.98;;;7.75;;
65387;SDS011;51992;53.528;49.474;2024-01-30T10:51:31;19.38;;;11.32;;
65387;SDS011;51992;53.528;49.474;2024-01-30T10:53:57;11.65;;;8.80;;
65387;SDS011;51992;53.528;49.474;2024-01-30T10:56:24;10.98;;;8.18;;
65387;SDS011;51992;53.528;49.474;2024-01-30T10:58:53;11.18;;;8.93;;
65387;SDS011;51992;53.528;49.474;2024-01-30T11:01:25;11.77;;;8.75;;
65387;SDS011;51992;53.528;49.474;2024-01-30T11:04:17;9.77;;;7.47;;
65387;SDS011;51992;53.528;49.474;2024-01-30T11:06:43;11.73;;;7.65;;
65387;SDS011;51992;53.528;49.474;2024-01-30T11:09:10;13.02;;;9.88;;
65387;SDS011;51992;53.528;49.474;2024-01-30T11:11:50;9.65;;;7.47;;
65387;SDS011;51992;53.528;49.474;2024-01-30T11:14:16;9.00;;;7.03;;
65387;SDS011;51992;53.528;49.474;2024-01-30T11:16:42;9.07;;;8.07;;
65387;SDS011;51992;53.528;49.474;2024-01-30T11:19:11;12.02;;;8.70;;
65387;SDS011;51992;53.528;49.474;2024-01-30T11:21:46;17.80;;;11.68;;
65387;SDS011;51992;53.528;49.474;2024-01-30T11:24:16;16.02;;;10.77;;
65387;SDS011;51992;53.528;49.474;2024-01-30T11:26:42;11.52;;;8.50;;
65387;SDS011;51992;53.528;49.474;2024-01-30T11:29:08;12.45;;;8.73;;
65387;SDS011;51992;53.528;49.474;2024-01-30T11:31:34;16.30;;;9.15;;
65387;SDS011;51992;53.528;49.474;2024-01-30T11:34:00;10.23;;;8.27;;
65387;SDS011;51992;53.528;49.474;2024-01-30T11:36:26;13.48;;;9.70;;
65387;SDS011;51992;53.528;49.474;2024-01-30T11:38:53;11.13;;;8.50;;
65387;SDS011;51992;53.528;49.474;2024-01-30T11:41:19;10.07;;;7.90;;
65387;SDS011;51992;53.528;49.474;2024-01-30T11:43:55;10.85;;;8.20;;
65387;SDS011;51992;53.528;49.474;2024-01-30T11:46:20;12.10;;;7.38;;
65387;SDS011;51992;53.528;49.474;2024-01-30T11:48:46;11.52;;;7.80;;
65387;SDS011;51992;53.528;49.474;2024-01-30T11:51:13;11.38;;;8.00;;
65387;SDS011;51992;53.528;49.474;2024-01-30T11:53:39;8.48;;;7.10;;
65387;SDS011;51992;53.528;49.474;2024-01-30T11:56:08;10.98;;;8.40;;
65387;SDS011;51992;53.528;49.474;2024-01-30T11:58:34;10.80;;;7.68;;
65387;SDS011;51992;53.528;49.474;2024-01-30T12:01:00;15.40;;;9.43;;
65387;SDS011;51992;53.528;49.474;2024-01-30T12:03:26;12.57;;;9.18;;
65387;SDS011;51992;53.528;49.474;2024-01-30T12:05:58;10.68;;;8.10;;
65387;SDS011;51992;53.528;49.474;2024-01-30T12:08:24;12.13;;;9.20;;
65387;SDS011;51992;53.528;49.474;2024-01-30T12:10:59;13.20;;;9.18;;
65387;SDS011;51992;53.528;49.474;2024-01-30T12:13:31;11.77;;;9.07;;
65387;SDS011;51992;53.528;49.474;2024-01-30T12:15:57;12.13;;;8.68;;
65387;SDS011;51992;53.528;49.474;2024-01-30T12:18:23;11.02;;;8.10;;
65387;SDS011;51992;53.528;49.474;2024-01-30T12:20:59;12.52;;;9.73;;
65387;SDS011;51992;53.528;49.474;2024-01-30T12:23:28;11.43;;;8.15;;
65387;SDS011;51992;53.528;49.474;2024-01-30T12:25:55;11.43;;;8.32;;
65387;SDS011;51992;53.528;49.474;2024-01-30T12:28:21;12.07;;;8.55;;
65387;SDS011;51992;53.528;49.474;2024-01-30T12:30:47;10.70;;;8.18;;
65387;SDS011;51992;53.528;49.474;2024-01-30T12:33:18;11.77;;;8.60;;
65387;SDS011;51992;53.528;49.474;2024-01-30T12:35:48;10.80;;;8.25;;
65387;SDS011;51992;53.528;49.474;2024-01-30T12:38:14;12.13;;;8.57;;
65387;SDS011;51992;53.528;49.474;2024-01-30T12:40:40;9.82;;;7.93;;
65387;SDS011;51992;53.528;49.474;2024-01-30T12:43:06;12.35;;;8.85;;
65387;SDS011;51992;53.528;49.474;2024-01-30T12:45:32;9.93;;;8.32;;
65387;SDS011;51992;53.528;49.474;2024-01-30T12:47:58;9.20;;;7.85;;
65387;SDS011;51992;53.528;49.474;2024-01-30T12:50:24;11.77;;;8.52;;
65387;SDS011;51992;53.528;49.474;2024-01-30T12:52:50;9.95;;;7.70;;
65387;SDS011;51992;53.528;49.474;2024-01-30T12:55:17;10.93;;;8.10;;
65387;SDS011;51992;53.528;49.474;2024-01-30T12:57:43;8.23;;;7.18;;
65387;SDS011;51992;53.528;49.474;2024-01-30T13:00:09;8.77;;;6.28;;
65387;SDS011;51992;53.528;49.474;2024-01-30T13:02:35;8.60;;;6.93;;
65387;SDS011;51992;53.528;49.474;2024-01-30T13:05:02;9.77;;;7.47;;
65387;SDS011;51992;53.528;49.474;2024-01-30T13:07:28;9.02;;;6.85;;
65387;SDS011;51992;53.528;49.474;2024-01-30T13:09:54;11.52;;;8.15;;
65387;SDS011;51992;53.528;49.474;2024-01-30T13:12:20;10.52;;;7.38;;
65387;SDS011;51992;53.528;49.474;2024-01-30T13:14:46;9.02;;;7.25;;
65387;SDS011;51992;53.528;49.474;2024-01-30T13:17:12;10.18;;;7.32;;
65387;SDS011;51992;53.528;49.474;2024-01-30T13:19:38;8.60;;;7.10;;
65387;SDS011;51992;53.528;49.474;2024-01-30T13:22:04;10.40;;;7.63;;
65387;SDS011;51992;53.528;49.474;2024-01-30T13:24:30;12.57;;;7.65;;
65387;SDS011;51992;53.528;49.474;2024-01-30T13:26:56;11.70;;;8.23;;
65387;SDS011;51992;53.528;49.474;2024-01-30T13:29:22;10.13;;;7.97;;
65387;SDS011;51992;53.528;49.474;2024-01-30T13:31:48;9.38;;;7.30;;
65387;SDS011;51992;53.528;49.474;2024-01-30T13:34:15;9.90;;;7.38;;
65387;SDS011;51992;53.528;49.474;2024-01-30T13:36:41;10.02;;;7.32;;
65387;SDS011;51992;53.528;49.474;2024-01-30T13:39:07;12.75;;;7.65;;
65387;SDS011;51992;53.528;49.474;2024-01-30T13:41:35;9.73;;;7.47;;
65387;SDS011;51992;53.528;49.474;2024-01-30T13:44:04;9.57;;;7.30;;
65387;SDS011;51992;53.528;49.474;2024-01-30T13:46:30;10.98;;;7.60;;
65387;SDS011;51992;53.528;49.474;2024-01-30T13:48:57;13.40;;;8.15;;
65387;SDS011;51992;53.528;49.474;2024-01-30T13:51:22;11.98;;;7.45;;
65387;SDS011;51992;53.528;49.474;2024-01-30T13:53:48;12.27;;;8.07;;
65387;SDS011;51992;53.528;49.474;2024-01-30T13:56:15;11.20;;;7.68;;
65387;SDS011;51992;53.528;49.474;2024-01-30T13:58:41;10.35;;;7.03;;
65387;SDS011;51992;53.528;49.474;2024-01-30T14:01:07;8.50;;;6.75;;
65387;SDS011;51992;53.528;49.474;2024-01-30T14:03:33;7.07;;;5.95;;
65387;SDS011;51992;53.528;49.474;2024-01-30T14:05:59;7.70;;;6.28;;
65387;SDS011;51992;53.528;49.474;2024-01-30T14:08:25;10.20;;;7.97;;
65387;SDS011;51992;53.528;49.474;2024-01-30T14:10:54;9.90;;;7.13;;
65387;SDS011;51992;53.528;49.474;2024-01-30T14:13:20;9.60;;;6.93;;
65387;SDS011;51992;53.528;49.474;2024-01-30T14:15:46;9.23;;;7.20;;
65387;SDS011;51992;53.528;49.474;2024-01-30T14:18:12;11.32;;;7.53;;
65387;SDS011;51992;53.528;49.474;2024-01-30T14:20:38;9.43;;;7.18;;
65387;SDS011;51992;53.528;49.474;2024-01-30T14:23:04;9.48;;;7.47;;